Racecast

Maddie Kerley

Temperance Bedford (MI) · 10 · SECMI D1MONROE · Compare head to head

Athlete rating 100.3 2016 XC season
Best race 98.3 XC
Races 29
Seasons 3 2014 — 2016

RankedNation #96381·MI #6213·MI D1 #3448·SEC #291·Team #141 ?

Rating scale ?

Cross Country

2016 XC 93.7

Temperance Bedford (MI) · Grade 10

Date Meet Event Result Place Rating Difficulty PR/SR Flags
2016-10-29 Lake Erie Metro Park OFFICIAL 5000m 28:14 129th · 17th on team 97.2 +0.055 ★CR CSR
2016-10-20 Hudson Mills Metropark - OFFICIAL 5000m 28:43.9 156th · 17th on team 93.3 +0.036
2016-10-15 Hudson Mills Metropark - OFFICIAL 5000m 27:32.8 177th · 16th on team 98.3 +0.036 ★CR ★R CSR RSR
2016-10-08 Portage West MS 5000m 27:30 444th · 15th on team 98.1 +0.038 ★CR R CSR RSR
2016-09-17 Springfield Oaks County Park OFFICIAL 5000m 31:48 158th · 13th on team 89.6 +0.067 ★CR CSR
2016-09-13 Heritage Park (Adrian) OFFICIAL 5000m 29:53.2 119th · 10th on team 94.4 +0.084 ★CR R CSR RSR
2016-09-10 Hedges Boyer Park 5000m 26:46.2 413th · 3rd on team 94.1 -0.036 PR CR R SR CSR RSR
2016-09-10 Hedges Boyer Park 5000m 26:46 206th · 9th on team 94.1 -0.036 ★PR ★CR R SR CSR RSR
2016-08-27 Boy Scout Camp Lakota 5000m 30:27 146th · 16th on team 84.9 -0.003 ★CR CSR
2016-08-25 Heritage Park (Adrian) OFFICIAL 5000m 30:26.5 21st · 12th on team 92.7 +0.084 PR CR R SR CSR RSR

Track & Field

2015 TF 86.8

Temperance Bedford (MI) · Grade 8

Date Meet Event Result Place Rating Difficulty PR/SR Flags
2015-05-14 Bedford vs Lincoln MS lj 9'11 -0.033
2015-05-14 Bedford vs Lincoln MS 200m 37:00.24 4th · 4th on team -0.033
2015-05-07 Bedford vs Saline vs Ypsilanti MS lj 7'7 -0.033
2015-04-23 Bedford @Adrian MS lj 8'11.5 -0.024
2015-04-16 Time Trials MS Girls 200m 37.24 31st · 31st on team -0.033 ★PR SR
2015-04-16 Time Trials MS Girls 800m 3:50 30th · 30th on team 86.8 -0.033 SR RSR
2015-04-16 Time Trials MS Girls 100m 19.24 44th · 44th on team -0.033 SR
2015-04-16 Time Trials MS Girls 400m 1:41.14 43rd · 43rd on team -0.033 ★PR SR

2014 TF 89.6

Temperance Bedford (MI) · Grade 7

Date Meet Event Result Place Rating Difficulty PR/SR Flags
2014-05-21 Bedford vs Chelsea 70m 13.24 8th · 8th on team -0.029
2014-05-19 Bedford vs Dexter 100m 19.24 16th · 16th on team -0.033
2014-05-08 Bedford vs Adrian lj 9'2" -0.033
2014-05-08 Bedford vs Adrian 70m 13.64 15th · 15th on team -0.033
2014-05-05 Bedford vs Ypsilanti lj 0' -0.029
2014-05-05 Bedford vs Ypsilanti 100m 19.34 10th · 10th on team -0.029
2014-04-28 Bedford vs Monroe 70m 13.24 6th · 6th on team -0.033 PR SR
2014-04-16 Bedford TT 800m 3:41 35th · 35th on team 90.3 -0.033 ★PR R SR RSR
2014-04-16 Bedford TT 100m 18.24 57th · 57th on team -0.033 ★PR SR
2014-04-16 Bedford TT 1600m 8:23 42nd · 42nd on team 88.9 -0.033 ★PR SR
2014-04-14 Bedford vs Tecumseh lj 8' 3.5" -0.033